sensor_id;sensor_type;location;lat;lon;timestamp;pressure;altitude;pressure_sealevel;temperature;humidity
23361;BME280;11852;50.082;18.554;2023-04-06T00:01:02;98942.0;;;-0.19;65.94
23361;BME280;11852;50.082;18.554;2023-04-06T00:02:09;98942.01;;;-0.19;65.99
23361;BME280;11852;50.082;18.554;2023-04-06T00:03:16;98944.5;;;-0.2;65.86
23361;BME280;11852;50.082;18.554;2023-04-06T00:04:23;98941.5;;;-0.18;65.87
23361;BME280;11852;50.082;18.554;2023-04-06T00:05:29;98940.5;;;-0.21;65.85
23361;BME280;11852;50.082;18.554;2023-04-06T00:06:36;98941.5;;;-0.23;65.63
23361;BME280;11852;50.082;18.554;2023-04-06T00:07:43;98942.0;;;-0.24;65.71
23361;BME280;11852;50.082;18.554;2023-04-06T00:08:50;98941.5;;;-0.24;65.78
23361;BME280;11852;50.082;18.554;2023-04-06T00:09:57;98942.0;;;-0.26;65.96
23361;BME280;11852;50.082;18.554;2023-04-06T00:11:04;98941.5;;;-0.29;65.93
23361;BME280;11852;50.082;18.554;2023-04-06T00:12:10;98940.0;;;-0.29;65.83
23361;BME280;11852;50.082;18.554;2023-04-06T00:13:17;98938.0;;;-0.31;65.98
23361;BME280;11852;50.082;18.554;2023-04-06T00:14:24;98939.5;;;-0.29;65.94
23361;BME280;11852;50.082;18.554;2023-04-06T00:15:31;98940.5;;;-0.31;66.07
23361;BME280;11852;50.082;18.554;2023-04-06T00:16:38;98939.5;;;-0.29;66.2
23361;BME280;11852;50.082;18.554;2023-04-06T00:17:44;98938.5;;;-0.3;66.25
23361;BME280;11852;50.082;18.554;2023-04-06T00:18:51;98936.0;;;-0.28;66.17
23361;BME280;11852;50.082;18.554;2023-04-06T00:19:58;98936.0;;;-0.3;66.18
23361;BME280;11852;50.082;18.554;2023-04-06T00:21:05;98935.5;;;-0.3;66.1
23361;BME280;11852;50.082;18.554;2023-04-06T00:22:12;98936.5;;;-0.28;66.16
23361;BME280;11852;50.082;18.554;2023-04-06T00:23:19;98936.0;;;-0.28;66.29
23361;BME280;11852;50.082;18.554;2023-04-06T00:24:25;98933.5;;;-0.31;66.44
23361;BME280;11852;50.082;18.554;2023-04-06T00:25:32;98933.0;;;-0.29;66.46
23361;BME280;11852;50.082;18.554;2023-04-06T00:26:39;98932.5;;;-0.32;66.41
23361;BME280;11852;50.082;18.554;2023-04-06T00:27:46;98929.5;;;-0.34;66.64
23361;BME280;11852;50.082;18.554;2023-04-06T00:28:53;98928.5;;;-0.36;66.71
23361;BME280;11852;50.082;18.554;2023-04-06T00:29:59;98929.0;;;-0.34;66.76
23361;BME280;11852;50.082;18.554;2023-04-06T00:31:06;98930.0;;;-0.36;66.84
23361;BME280;11852;50.082;18.554;2023-04-06T00:32:13;98927.0;;;-0.35;66.93
23361;BME280;11852;50.082;18.554;2023-04-06T00:33:20;98927.0;;;-0.36;67.21
23361;BME280;11852;50.082;18.554;2023-04-06T00:34:27;98930.0;;;-0.36;67.29
23361;BME280;11852;50.082;18.554;2023-04-06T00:35:33;98930.5;;;-0.36;67.36
23361;BME280;11852;50.082;18.554;2023-04-06T00:36:40;98931.5;;;-0.38;67.53
23361;BME280;11852;50.082;18.554;2023-04-06T00:37:47;98934.0;;;-0.44;67.62
23361;BME280;11852;50.082;18.554;2023-04-06T00:38:54;98932.0;;;-0.47;67.81
23361;BME280;11852;50.082;18.554;2023-04-06T00:40:01;98931.0;;;-0.49;67.94
23361;BME280;11852;50.082;18.554;2023-04-06T00:41:08;98936.0;;;-0.53;68.22
23361;BME280;11852;50.082;18.554;2023-04-06T00:42:14;98932.49;;;-0.53;68.19
23361;BME280;11852;50.082;18.554;2023-04-06T00:43:21;98934.0;;;-0.52;68.22
23361;BME280;11852;50.082;18.554;2023-04-06T00:44:28;98931.01;;;-0.55;68.25
23361;BME280;11852;50.082;18.554;2023-04-06T00:45:35;98932.5;;;-0.54;68.4
23361;BME280;11852;50.082;18.554;2023-04-06T00:46:41;98931.5;;;-0.57;68.61
23361;BME280;11852;50.082;18.554;2023-04-06T00:47:48;98928.0;;;-0.6;68.81
23361;BME280;11852;50.082;18.554;2023-04-06T00:48:56;98931.0;;;-0.62;68.89
23361;BME280;11852;50.082;18.554;2023-04-06T00:50:02;98929.5;;;-0.61;69.17
23361;BME280;11852;50.082;18.554;2023-04-06T00:51:09;98930.0;;;-0.61;69.18
23361;BME280;11852;50.082;18.554;2023-04-06T00:52:17;98928.5;;;-0.63;69.17
23361;BME280;11852;50.082;18.554;2023-04-06T00:53:22;98929.0;;;-0.65;69.31
23361;BME280;11852;50.082;18.554;2023-04-06T00:54:29;98928.5;;;-0.63;69.43
23361;BME280;11852;50.082;18.554;2023-04-06T00:55:36;98926.5;;;-0.63;69.61
23361;BME280;11852;50.082;18.554;2023-04-06T00:56:43;98927.5;;;-0.6;69.43
23361;BME280;11852;50.082;18.554;2023-04-06T00:57:50;98925.0;;;-0.62;69.52
23361;BME280;11852;50.082;18.554;2023-04-06T00:58:56;98927.0;;;-0.62;69.44
23361;BME280;11852;50.082;18.554;2023-04-06T01:00:04;98927.5;;;-0.58;69.54
23361;BME280;11852;50.082;18.554;2023-04-06T01:01:10;98931.5;;;-0.58;69.35
23361;BME280;11852;50.082;18.554;2023-04-06T01:02:17;98930.01;;;-0.6;69.34
23361;BME280;11852;50.082;18.554;2023-04-06T01:03:24;98931.0;;;-0.59;69.26
23361;BME280;11852;50.082;18.554;2023-04-06T01:04:31;98931.0;;;-0.63;69.33
23361;BME280;11852;50.082;18.554;2023-04-06T01:05:38;98931.0;;;-0.64;69.26
23361;BME280;11852;50.082;18.554;2023-04-06T01:06:44;98932.0;;;-0.63;69.18
23361;BME280;11852;50.082;18.554;2023-04-06T01:07:51;98932.5;;;-0.63;69.24
23361;BME280;11852;50.082;18.554;2023-04-06T01:08:58;98931.0;;;-0.62;69.18
23361;BME280;11852;50.082;18.554;2023-04-06T01:10:05;98929.51;;;-0.63;68.89
23361;BME280;11852;50.082;18.554;2023-04-06T01:11:12;98930.01;;;-0.63;68.6
23361;BME280;11852;50.082;18.554;2023-04-06T01:12:19;98929.51;;;-0.61;68.4
23361;BME280;11852;50.082;18.554;2023-04-06T01:13:25;98928.0;;;-0.58;68.35
23361;BME280;11852;50.082;18.554;2023-04-06T01:14:32;98929.0;;;-0.57;68.2
23361;BME280;11852;50.082;18.554;2023-04-06T01:15:39;98927.5;;;-0.57;68.12
23361;BME280;11852;50.082;18.554;2023-04-06T01:16:46;98929.51;;;-0.53;67.86
23361;BME280;11852;50.082;18.554;2023-04-06T01:17:52;98927.5;;;-0.53;67.75
23361;BME280;11852;50.082;18.554;2023-04-06T01:18:59;98925.5;;;-0.5;67.57
23361;BME280;11852;50.082;18.554;2023-04-06T01:20:06;98924.5;;;-0.49;67.26
23361;BME280;11852;50.082;18.554;2023-04-06T01:21:13;98923.0;;;-0.53;67.01
23361;BME280;11852;50.082;18.554;2023-04-06T01:22:20;98924.5;;;-0.56;66.8
23361;BME280;11852;50.082;18.554;2023-04-06T01:23:27;98926.5;;;-0.58;66.68
23361;BME280;11852;50.082;18.554;2023-04-06T01:24:34;98922.5;;;-0.62;66.54
23361;BME280;11852;50.082;18.554;2023-04-06T01:25:41;98923.0;;;-0.63;66.42
23361;BME280;11852;50.082;18.554;2023-04-06T01:26:47;98922.5;;;-0.64;66.52
23361;BME280;11852;50.082;18.554;2023-04-06T01:27:54;98924.5;;;-0.65;66.44
23361;BME280;11852;50.082;18.554;2023-04-06T01:29:01;98924.0;;;-0.65;66.43
23361;BME280;11852;50.082;18.554;2023-04-06T01:30:08;98926.5;;;-0.66;66.41
23361;BME280;11852;50.082;18.554;2023-04-06T01:31:15;98926.5;;;-0.63;66.25
23361;BME280;11852;50.082;18.554;2023-04-06T01:32:22;98927.0;;;-0.59;66.19
23361;BME280;11852;50.082;18.554;2023-04-06T01:33:28;98926.0;;;-0.62;66.11
23361;BME280;11852;50.082;18.554;2023-04-06T01:34:35;98926.5;;;-0.6;66.16
23361;BME280;11852;50.082;18.554;2023-04-06T01:35:42;98923.0;;;-0.64;66.19
23361;BME280;11852;50.082;18.554;2023-04-06T01:36:49;98925.0;;;-0.64;66.18
23361;BME280;11852;50.082;18.554;2023-04-06T01:37:55;98925.5;;;-0.63;66.07
23361;BME280;11852;50.082;18.554;2023-04-06T01:39:02;98924.0;;;-0.63;65.93
23361;BME280;11852;50.082;18.554;2023-04-06T01:40:09;98926.0;;;-0.63;65.92
23361;BME280;11852;50.082;18.554;2023-04-06T01:41:16;98923.0;;;-0.62;65.86
23361;BME280;11852;50.082;18.554;2023-04-06T01:42:23;98923.5;;;-0.63;65.89
23361;BME280;11852;50.082;18.554;2023-04-06T01:43:29;98926.0;;;-0.67;66.1
23361;BME280;11852;50.082;18.554;2023-04-06T01:44:36;98925.0;;;-0.65;66.29
23361;BME280;11852;50.082;18.554;2023-04-06T01:45:43;98925.0;;;-0.65;66.46
23361;BME280;11852;50.082;18.554;2023-04-06T01:46:50;98925.0;;;-0.69;66.84
23361;BME280;11852;50.082;18.554;2023-04-06T01:47:56;98924.0;;;-0.7;66.92
23361;BME280;11852;50.082;18.554;2023-04-06T01:49:03;98924.0;;;-0.79;67.28
23361;BME280;11852;50.082;18.554;2023-04-06T01:50:10;98925.5;;;-0.81;67.5
23361;BME280;11852;50.082;18.554;2023-04-06T01:51:17;98927.5;;;-0.88;67.74
23361;BME280;11852;50.082;18.554;2023-04-06T01:52:24;98926.0;;;-0.91;67.95
23361;BME280;11852;50.082;18.554;2023-04-06T01:53:30;98927.0;;;-0.93;68.0
23361;BME280;11852;50.082;18.554;2023-04-06T01:54:37;98922.5;;;-0.98;68.03
23361;BME280;11852;50.082;18.554;2023-04-06T01:55:44;98923.5;;;-1.0;68.0
23361;BME280;11852;50.082;18.554;2023-04-06T01:56:51;98923.5;;;-1.02;68.25
23361;BME280;11852;50.082;18.554;2023-04-06T01:57:58;98925.5;;;-1.03;68.51
23361;BME280;11852;50.082;18.554;2023-04-06T01:59:04;98924.0;;;-1.02;68.6
23361;BME280;11852;50.082;18.554;2023-04-06T02:00:12;98924.5;;;-1.06;68.95
23361;BME280;11852;50.082;18.554;2023-04-06T02:01:19;98921.5;;;-1.06;68.74
23361;BME280;11852;50.082;18.554;2023-04-06T02:02:25;98924.5;;;-1.05;68.62
23361;BME280;11852;50.082;18.554;2023-04-06T02:03:32;98925.5;;;-1.07;68.71
23361;BME280;11852;50.082;18.554;2023-04-06T02:04:39;98922.5;;;-1.04;68.74
23361;BME280;11852;50.082;18.554;2023-04-06T02:05:46;98922.0;;;-1.06;68.69
23361;BME280;11852;50.082;18.554;2023-04-06T02:06:53;98923.5;;;-1.05;68.6
23361;BME280;11852;50.082;18.554;2023-04-06T02:07:59;98925.0;;;-1.03;68.65
23361;BME280;11852;50.082;18.554;2023-04-06T02:09:06;98923.5;;;-1.03;68.77
23361;BME280;11852;50.082;18.554;2023-04-06T02:10:13;98923.5;;;-1.04;68.89
23361;BME280;11852;50.082;18.554;2023-04-06T02:11:20;98922.0;;;-1.02;68.92
23361;BME280;11852;50.082;18.554;2023-04-06T02:12:27;98923.0;;;-1.06;68.88
23361;BME280;11852;50.082;18.554;2023-04-06T02:13:34;98922.5;;;-1.04;68.86
23361;BME280;11852;50.082;18.554;2023-04-06T02:14:40;98922.5;;;-1.08;68.99
23361;BME280;11852;50.082;18.554;2023-04-06T02:15:47;98922.5;;;-1.08;68.82
23361;BME280;11852;50.082;18.554;2023-04-06T02:16:54;98922.0;;;-1.07;68.84
23361;BME280;11852;50.082;18.554;2023-04-06T02:18:01;98920.0;;;-1.07;69.03
23361;BME280;11852;50.082;18.554;2023-04-06T02:19:08;98917.51;;;-1.08;68.95
23361;BME280;11852;50.082;18.554;2023-04-06T02:20:14;98918.0;;;-1.1;69.01
23361;BME280;11852;50.082;18.554;2023-04-06T02:21:21;98920.49;;;-1.08;69.15
23361;BME280;11852;50.082;18.554;2023-04-06T02:22:28;98920.49;;;-1.08;69.36
23361;BME280;11852;50.082;18.554;2023-04-06T02:23:35;98918.0;;;-1.11;69.38
23361;BME280;11852;50.082;18.554;2023-04-06T02:24:42;98917.0;;;-1.13;69.35
23361;BME280;11852;50.082;18.554;2023-04-06T02:25:49;98919.49;;;-1.18;69.38
23361;BME280;11852;50.082;18.554;2023-04-06T02:26:55;98916.5;;;-1.15;69.4
23361;BME280;11852;50.082;18.554;2023-04-06T02:28:02;98916.5;;;-1.12;69.44
23361;BME280;11852;50.082;18.554;2023-04-06T02:29:09;98916.0;;;-1.11;69.45
23361;BME280;11852;50.082;18.554;2023-04-06T02:30:16;98912.5;;;-1.11;69.57
23361;BME280;11852;50.082;18.554;2023-04-06T02:31:23;98913.0;;;-1.11;69.63
23361;BME280;11852;50.082;18.554;2023-04-06T02:32:29;98913.5;;;-1.11;69.65
23361;BME280;11852;50.082;18.554;2023-04-06T02:33:36;98912.0;;;-1.12;69.82
23361;BME280;11852;50.082;18.554;2023-04-06T02:34:43;98916.5;;;-1.15;70.04
23361;BME280;11852;50.082;18.554;2023-04-06T02:35:50;98913.5;;;-1.16;69.93
23361;BME280;11852;50.082;18.554;2023-04-06T02:36:57;98915.5;;;-1.19;70.33
23361;BME280;11852;50.082;18.554;2023-04-06T02:38:03;98914.5;;;-1.2;70.28
23361;BME280;11852;50.082;18.554;2023-04-06T02:39:10;98916.0;;;-1.22;70.48
23361;BME280;11852;50.082;18.554;2023-04-06T02:40:17;98916.5;;;-1.15;70.37
23361;BME280;11852;50.082;18.554;2023-04-06T02:41:24;98915.5;;;-1.17;70.54
23361;BME280;11852;50.082;18.554;2023-04-06T02:42:31;98916.5;;;-1.15;70.62
23361;BME280;11852;50.082;18.554;2023-04-06T02:43:37;98916.5;;;-1.14;70.76
23361;BME280;11852;50.082;18.554;2023-04-06T02:44:44;98919.99;;;-1.15;70.73
23361;BME280;11852;50.082;18.554;2023-04-06T02:45:51;98918.5;;;-1.14;70.62
23361;BME280;11852;50.082;18.554;2023-04-06T02:46:58;98924.0;;;-1.15;70.58
23361;BME280;11852;50.082;18.554;2023-04-06T02:48:05;98922.5;;;-1.18;70.65
23361;BME280;11852;50.082;18.554;2023-04-06T02:49:11;98922.5;;;-1.15;70.36
23361;BME280;11852;50.082;18.554;2023-04-06T02:50:18;98928.0;;;-1.17;70.35
23361;BME280;11852;50.082;18.554;2023-04-06T02:51:25;98924.5;;;-1.19;70.51
23361;BME280;11852;50.082;18.554;2023-04-06T02:52:32;98926.0;;;-1.19;70.38
23361;BME280;11852;50.082;18.554;2023-04-06T02:53:39;98925.0;;;-1.25;70.19
23361;BME280;11852;50.082;18.554;2023-04-06T02:54:45;98926.0;;;-1.26;70.21
23361;BME280;11852;50.082;18.554;2023-04-06T02:55:52;98926.5;;;-1.26;70.15
23361;BME280;11852;50.082;18.554;2023-04-06T02:56:59;98928.0;;;-1.29;70.29
23361;BME280;11852;50.082;18.554;2023-04-06T02:58:06;98927.5;;;-1.29;70.36
23361;BME280;11852;50.082;18.554;2023-04-06T02:59:13;98926.0;;;-1.28;70.32
23361;BME280;11852;50.082;18.554;2023-04-06T03:00:19;98922.5;;;-1.33;70.5
23361;BME280;11852;50.082;18.554;2023-04-06T03:01:26;98922.5;;;-1.32;70.61
23361;BME280;11852;50.082;18.554;2023-04-06T03:02:33;98925.0;;;-1.28;70.78
23361;BME280;11852;50.082;18.554;2023-04-06T03:03:40;98922.0;;;-1.28;70.75
23361;BME280;11852;50.082;18.554;2023-04-06T03:04:47;98924.0;;;-1.29;70.54
23361;BME280;11852;50.082;18.554;2023-04-06T03:05:53;98924.5;;;-1.3;70.6
23361;BME280;11852;50.082;18.554;2023-04-06T03:07:00;98921.0;;;-1.35;70.58
23361;BME280;11852;50.082;18.554;2023-04-06T03:08:07;98921.0;;;-1.36;70.65
23361;BME280;11852;50.082;18.554;2023-04-06T03:09:14;98923.5;;;-1.36;70.61
23361;BME280;11852;50.082;18.554;2023-04-06T03:10:21;98919.5;;;-1.37;70.31
23361;BME280;11852;50.082;18.554;2023-04-06T03:11:28;98919.5;;;-1.38;70.17
23361;BME280;11852;50.082;18.554;2023-04-06T03:12:34;98918.5;;;-1.37;70.14
23361;BME280;11852;50.082;18.554;2023-04-06T03:13:41;98919.0;;;-1.38;70.24
23361;BME280;11852;50.082;18.554;2023-04-06T03:14:48;98918.0;;;-1.35;70.22
23361;BME280;11852;50.082;18.554;2023-04-06T03:15:55;98918.5;;;-1.36;70.32
23361;BME280;11852;50.082;18.554;2023-04-06T03:17:02;98918.0;;;-1.38;70.4
23361;BME280;11852;50.082;18.554;2023-04-06T03:18:08;98918.5;;;-1.38;70.34
23361;BME280;11852;50.082;18.554;2023-04-06T03:19:15;98921.5;;;-1.39;70.4
23361;BME280;11852;50.082;18.554;2023-04-06T03:20:22;98921.5;;;-1.38;70.36
23361;BME280;11852;50.082;18.554;2023-04-06T03:21:29;98921.5;;;-1.42;70.41
23361;BME280;11852;50.082;18.554;2023-04-06T03:22:36;98924.0;;;-1.4;70.25
23361;BME280;11852;50.082;18.554;2023-04-06T03:23:42;98924.0;;;-1.44;70.38
23361;BME280;11852;50.082;18.554;2023-04-06T03:24:49;98924.5;;;-1.44;70.5
23361;BME280;11852;50.082;18.554;2023-04-06T03:25:56;98927.5;;;-1.45;70.45
23361;BME280;11852;50.082;18.554;2023-04-06T03:27:03;98926.0;;;-1.42;70.39
23361;BME280;11852;50.082;18.554;2023-04-06T03:28:10;98925.0;;;-1.44;70.19
23361;BME280;11852;50.082;18.554;2023-04-06T03:29:17;98925.0;;;-1.43;70.14
23361;BME280;11852;50.082;18.554;2023-04-06T03:30:23;98923.0;;;-1.44;70.01
23361;BME280;11852;50.082;18.554;2023-04-06T03:31:30;98925.5;;;-1.45;70.02
23361;BME280;11852;50.082;18.554;2023-04-06T03:32:37;98926.0;;;-1.44;69.9
23361;BME280;11852;50.082;18.554;2023-04-06T03:33:44;98926.0;;;-1.42;70.01
23361;BME280;11852;50.082;18.554;2023-04-06T03:34:50;98926.0;;;-1.44;70.19
23361;BME280;11852;50.082;18.554;2023-04-06T03:35:57;98928.0;;;-1.46;70.1
23361;BME280;11852;50.082;18.554;2023-04-06T03:37:04;98929.51;;;-1.45;70.06
23361;BME280;11852;50.082;18.554;2023-04-06T03:38:11;98930.0;;;-1.44;70.14
23361;BME280;11852;50.082;18.554;2023-04-06T03:39:17;98932.0;;;-1.45;70.24
23361;BME280;11852;50.082;18.554;2023-04-06T03:40:24;98933.5;;;-1.44;70.21
23361;BME280;11852;50.082;18.554;2023-04-06T03:41:31;98932.49;;;-1.44;70.28
23361;BME280;11852;50.082;18.554;2023-04-06T03:42:38;98933.0;;;-1.46;70.26
23361;BME280;11852;50.082;18.554;2023-04-06T03:43:45;98931.5;;;-1.5;70.19
23361;BME280;11852;50.082;18.554;2023-04-06T03:44:51;98933.0;;;-1.48;70.17
23361;BME280;11852;50.082;18.554;2023-04-06T03:45:58;98932.0;;;-1.46;70.24
23361;BME280;11852;50.082;18.554;2023-04-06T03:47:05;98932.0;;;-1.49;70.27
23361;BME280;11852;50.082;18.554;2023-04-06T03:48:12;98932.49;;;-1.46;70.27
23361;BME280;11852;50.082;18.554;2023-04-06T03:49:19;98934.5;;;-1.45;70.29
23361;BME280;11852;50.082;18.554;2023-04-06T03:50:25;98934.0;;;-1.41;70.21
23361;BME280;11852;50.082;18.554;2023-04-06T03:51:32;98935.5;;;-1.45;70.13
23361;BME280;11852;50.082;18.554;2023-04-06T03:52:39;98934.5;;;-1.4;70.11
23361;BME280;11852;50.082;18.554;2023-04-06T03:53:46;98935.5;;;-1.38;70.11
23361;BME280;11852;50.082;18.554;2023-04-06T03:54:52;98933.5;;;-1.35;69.95
23361;BME280;11852;50.082;18.554;2023-04-06T03:55:59;98934.5;;;-1.39;69.94
23361;BME280;11852;50.082;18.554;2023-04-06T03:57:06;98935.5;;;-1.39;69.87
23361;BME280;11852;50.082;18.554;2023-04-06T03:58:13;98937.0;;;-1.4;69.85
23361;BME280;11852;50.082;18.554;2023-04-06T03:59:20;98937.0;;;-1.42;69.8
23361;BME280;11852;50.082;18.554;2023-04-06T04:00:26;98939.0;;;-1.44;69.88
23361;BME280;11852;50.082;18.554;2023-04-06T04:01:33;98938.0;;;-1.47;69.95
23361;BME280;11852;50.082;18.554;2023-04-06T04:02:40;98937.0;;;-1.49;70.04
23361;BME280;11852;50.082;18.554;2023-04-06T04:03:47;98939.0;;;-1.5;70.24
23361;BME280;11852;50.082;18.554;2023-04-06T04:04:54;98937.0;;;-1.57;70.34
23361;BME280;11852;50.082;18.554;2023-04-06T04:06:00;98937.5;;;-1.54;70.26
23361;BME280;11852;50.082;18.554;2023-04-06T04:07:07;98938.0;;;-1.55;70.35
23361;BME280;11852;50.082;18.554;2023-04-06T04:08:14;98942.0;;;-1.55;70.38
23361;BME280;11852;50.082;18.554;2023-04-06T04:09:21;98940.5;;;-1.52;70.37
23361;BME280;11852;50.082;18.554;2023-04-06T04:10:28;98942.0;;;-1.54;70.34
23361;BME280;11852;50.082;18.554;2023-04-06T04:11:34;98944.5;;;-1.55;70.5
23361;BME280;11852;50.082;18.554;2023-04-06T04:12:41;98946.0;;;-1.55;70.65
23361;BME280;11852;50.082;18.554;2023-04-06T04:13:48;98947.0;;;-1.57;70.68
23361;BME280;11852;50.082;18.554;2023-04-06T04:14:55;98948.0;;;-1.59;71.03
23361;BME280;11852;50.082;18.554;2023-04-06T04:16:02;98949.0;;;-1.6;71.13
23361;BME280;11852;50.082;18.554;2023-04-06T04:17:08;98949.5;;;-1.6;71.2
23361;BME280;11852;50.082;18.554;2023-04-06T04:18:15;98949.0;;;-1.6;71.15
23361;BME280;11852;50.082;18.554;2023-04-06T04:19:22;98947.5;;;-1.61;71.2
23361;BME280;11852;50.082;18.554;2023-04-06T04:20:29;98946.5;;;-1.61;71.31
23361;BME280;11852;50.082;18.554;2023-04-06T04:21:42;98950.5;;;-1.6;71.34
23361;BME280;11852;50.082;18.554;2023-04-06T04:22:43;98945.49;;;-1.6;71.5
23361;BME280;11852;50.082;18.554;2023-04-06T04:23:49;98947.0;;;-1.56;71.47
23361;BME280;11852;50.082;18.554;2023-04-06T04:24:56;98947.0;;;-1.55;71.43
23361;BME280;11852;50.082;18.554;2023-04-06T04:26:03;98945.0;;;-1.56;71.41
23361;BME280;11852;50.082;18.554;2023-04-06T04:27:10;98941.5;;;-1.55;71.26
23361;BME280;11852;50.082;18.554;2023-04-06T04:28:17;98939.5;;;-1.56;71.29
23361;BME280;11852;50.082;18.554;2023-04-06T04:29:24;98939.5;;;-1.57;71.46
23361;BME280;11852;50.082;18.554;2023-04-06T04:30:30;98940.5;;;-1.54;71.43
23361;BME280;11852;50.082;18.554;2023-04-06T04:31:37;98942.5;;;-1.53;71.43
23361;BME280;11852;50.082;18.554;2023-04-06T04:32:44;98943.5;;;-1.55;71.45
23361;BME280;11852;50.082;18.554;2023-04-06T04:33:51;98943.5;;;-1.57;71.53
23361;BME280;11852;50.082;18.554;2023-04-06T04:34:58;98943.0;;;-1.55;71.5
23361;BME280;11852;50.082;18.554;2023-04-06T04:36:04;98944.99;;;-1.59;71.69
23361;BME280;11852;50.082;18.554;2023-04-06T04:37:11;98946.0;;;-1.53;71.66
23361;BME280;11852;50.082;18.554;2023-04-06T04:38:18;98947.5;;;-1.5;71.63
23361;BME280;11852;50.082;18.554;2023-04-06T04:39:25;98946.5;;;-1.49;71.63
23361;BME280;11852;50.082;18.554;2023-04-06T04:40:32;98945.5;;;-1.45;71.48
23361;BME280;11852;50.082;18.554;2023-04-06T04:41:38;98951.5;;;-1.47;71.4
23361;BME280;11852;50.082;18.554;2023-04-06T04:42:45;98947.0;;;-1.45;71.21
23361;BME280;11852;50.082;18.554;2023-04-06T04:43:52;98944.5;;;-1.46;71.18
23361;BME280;11852;50.082;18.554;2023-04-06T04:44:59;98946.5;;;-1.45;71.1
23361;BME280;11852;50.082;18.554;2023-04-06T04:46:06;98947.5;;;-1.43;71.12
23361;BME280;11852;50.082;18.554;2023-04-06T04:47:12;98945.5;;;-1.42;71.13
23361;BME280;11852;50.082;18.554;2023-04-06T04:48:19;98946.0;;;-1.44;71.17
23361;BME280;11852;50.082;18.554;2023-04-06T04:49:26;98944.5;;;-1.42;71.18
23361;BME280;11852;50.082;18.554;2023-04-06T04:50:33;98946.0;;;-1.41;71.2
23361;BME280;11852;50.082;18.554;2023-04-06T04:51:40;98944.0;;;-1.44;71.31
23361;BME280;11852;50.082;18.554;2023-04-06T04:52:46;98945.0;;;-1.45;71.39
23361;BME280;11852;50.082;18.554;2023-04-06T04:53:53;98946.5;;;-1.47;71.6
23361;BME280;11852;50.082;18.554;2023-04-06T04:55:01;98943.0;;;-1.47;71.7
23361;BME280;11852;50.082;18.554;2023-04-06T04:56:07;98944.5;;;-1.48;71.83
23361;BME280;11852;50.082;18.554;2023-04-06T04:57:13;98942.51;;;-1.43;71.74
23361;BME280;11852;50.082;18.554;2023-04-06T04:58:20;98946.0;;;-1.42;71.75
23361;BME280;11852;50.082;18.554;2023-04-06T04:59:27;98947.5;;;-1.42;71.86
23361;BME280;11852;50.082;18.554;2023-04-06T05:00:34;98945.0;;;-1.41;71.85
23361;BME280;11852;50.082;18.554;2023-04-06T05:01:41;98944.5;;;-1.39;71.79
23361;BME280;11852;50.082;18.554;2023-04-06T05:02:48;98946.0;;;-1.36;71.9
23361;BME280;11852;50.082;18.554;2023-04-06T05:03:54;98946.5;;;-1.35;72.08
23361;BME280;11852;50.082;18.554;2023-04-06T05:05:01;98945.0;;;-1.32;72.06
23361;BME280;11852;50.082;18.554;2023-04-06T05:06:08;98945.0;;;-1.31;72.0
23361;BME280;11852;50.082;18.554;2023-04-06T05:07:15;98945.0;;;-1.28;71.82
23361;BME280;11852;50.082;18.554;2023-04-06T05:08:22;98946.0;;;-1.25;71.78
23361;BME280;11852;50.082;18.554;2023-04-06T05:09:31;98949.0;;;-1.23;71.72
23361;BME280;11852;50.082;18.554;2023-04-06T05:10:38;98951.0;;;-1.2;71.58
23361;BME280;11852;50.082;18.554;2023-04-06T05:11:45;98953.5;;;-1.19;71.6
23361;BME280;11852;50.082;18.554;2023-04-06T05:12:52;98953.0;;;-1.18;71.54
23361;BME280;11852;50.082;18.554;2023-04-06T05:13:59;98952.5;;;-1.17;71.65
23361;BME280;11852;50.082;18.554;2023-04-06T05:15:06;98954.0;;;-1.16;71.65
23361;BME280;11852;50.082;18.554;2023-04-06T05:16:13;98952.5;;;-1.13;71.57
23361;BME280;11852;50.082;18.554;2023-04-06T05:17:19;98952.5;;;-1.12;71.6
23361;BME280;11852;50.082;18.554;2023-04-06T05:18:26;98947.5;;;-1.08;71.62
23361;BME280;11852;50.082;18.554;2023-04-06T05:19:33;98950.5;;;-1.08;71.74
23361;BME280;11852;50.082;18.554;2023-04-06T05:20:40;98947.0;;;-1.05;71.8
23361;BME280;11852;50.082;18.554;2023-04-06T05:21:47;98946.0;;;-1.02;71.77
23361;BME280;11852;50.082;18.554;2023-04-06T05:22:53;98948.0;;;-1.01;71.72
23361;BME280;11852;50.082;18.554;2023-04-06T05:24:00;98950.5;;;-1.01;71.62
23361;BME280;11852;50.082;18.554;2023-04-06T05:25:07;98953.0;;;-0.96;71.35
23361;BME280;11852;50.082;18.554;2023-04-06T05:26:14;98951.0;;;-0.94;71.35
23361;BME280;11852;50.082;18.554;2023-04-06T05:27:21;98953.5;;;-0.92;71.4
23361;BME280;11852;50.082;18.554;2023-04-06T05:28:28;98954.0;;;-0.89;71.34
23361;BME280;11852;50.082;18.554;2023-04-06T05:29:34;98955.0;;;-0.91;71.31
23361;BME280;11852;50.082;18.554;2023-04-06T05:30:44;98952.5;;;-0.86;71.08
23361;BME280;11852;50.082;18.554;2023-04-06T05:31:51;98952.0;;;-0.85;70.93
23361;BME280;11852;50.082;18.554;2023-04-06T05:32:58;98951.5;;;-0.81;70.56
23361;BME280;11852;50.082;18.554;2023-04-06T05:34:05;98952.5;;;-0.78;70.59
23361;BME280;11852;50.082;18.554;2023-04-06T05:35:12;98949.5;;;-0.73;70.35
23361;BME280;11852;50.082;18.554;2023-04-06T05:36:18;98947.0;;;-0.68;70.32
23361;BME280;11852;50.082;18.554;2023-04-06T05:37:25;98946.5;;;-0.62;70.17
23361;BME280;11852;50.082;18.554;2023-04-06T05:38:32;98942.5;;;-0.53;70.13
23361;BME280;11852;50.082;18.554;2023-04-06T05:39:39;98943.5;;;-0.5;70.1
23361;BME280;11852;50.082;18.554;2023-04-06T05:40:45;98943.5;;;-0.5;70.0
23361;BME280;11852;50.082;18.554;2023-04-06T05:41:52;98942.5;;;-0.46;69.88
23361;BME280;11852;50.082;18.554;2023-04-06T05:42:59;98942.01;;;-0.45;69.73
23361;BME280;11852;50.082;18.554;2023-04-06T05:44:06;98943.5;;;-0.51;69.91
23361;BME280;11852;50.082;18.554;2023-04-06T05:45:18;98944.99;;;-0.47;69.69
23361;BME280;11852;50.082;18.554;2023-04-06T05:46:24;98945.0;;;-0.46;69.76
23361;BME280;11852;50.082;18.554;2023-04-06T05:47:31;98941.5;;;-0.41;69.74
23361;BME280;11852;50.082;18.554;2023-04-06T05:48:38;98941.5;;;-0.35;69.79
23361;BME280;11852;50.082;18.554;2023-04-06T05:49:45;98940.5;;;-0.34;69.76
23361;BME280;11852;50.082;18.554;2023-04-06T05:50:52;98941.0;;;-0.34;69.74
23361;BME280;11852;50.082;18.554;2023-04-06T05:51:58;98943.0;;;-0.31;69.69
23361;BME280;11852;50.082;18.554;2023-04-06T05:53:05;98941.5;;;-0.29;69.72
23361;BME280;11852;50.082;18.554;2023-04-06T05:54:12;98942.5;;;-0.26;69.54
23361;BME280;11852;50.082;18.554;2023-04-06T05:55:19;98939.0;;;-0.22;69.46